createdAt,value
2018-05-14T00:02:25.825Z,96614.64
2018-05-14T00:04:53.231Z,96606.89
2018-05-14T00:07:20.639Z,96605.69
2018-05-14T00:09:48.771Z,96594.74
2018-05-14T00:14:43.327Z,96591.12
2018-05-14T00:17:10.763Z,96585.95
2018-05-14T00:19:38.213Z,96576.85
2018-05-14T00:22:05.647Z,96579.51
2018-05-14T00:24:33.076Z,96574.05
2018-05-14T00:27:02.531Z,96565.56
2018-05-14T00:29:29.923Z,96567.25
2018-05-14T00:31:57.474Z,96569.71
2018-05-14T00:34:24.875Z,96570.28
2018-05-14T00:36:52.311Z,96560.96
2018-05-14T00:39:19.739Z,96566.90
2018-05-14T00:41:47.173Z,96568.30
2018-05-14T00:44:14.631Z,96568.47
2018-05-14T00:46:42.084Z,96560.77
2018-05-14T00:49:09.481Z,96569.39
2018-05-14T00:51:36.884Z,96572.20
2018-05-14T00:54:04.975Z,96568.63
2018-05-14T00:56:32.396Z,96570.89
2018-05-14T00:58:59.975Z,96573.34
2018-05-14T01:01:28.575Z,96578.17
2018-05-14T01:03:56.005Z,96576.73
2018-05-14T01:06:24.824Z,96570.98
2018-05-14T01:08:52.218Z,96572.38
2018-05-14T01:11:19.672Z,96561.09
2018-05-14T01:13:47.068Z,96562.97
2018-05-14T01:16:14.641Z,96569.45
2018-05-14T01:18:42.067Z,96562.84
2018-05-14T01:21:10.335Z,96566.67
2018-05-14T01:23:37.782Z,96573.06
2018-05-14T01:26:05.216Z,96566.31
2018-05-14T01:28:32.700Z,96566.52
2018-05-14T01:31:00.164Z,96565.59
2018-05-14T01:33:27.746Z,96563.06
2018-05-14T01:35:55.199Z,96555.52
2018-05-14T01:38:23.989Z,96553.16
2018-05-14T01:40:52.145Z,96556.02
2018-05-14T01:43:19.595Z,96557.64
2018-05-14T01:45:47.015Z,96554.56
2018-05-14T01:48:14.456Z,96550.69
2018-05-14T01:50:41.948Z,96539.80
2018-05-14T01:53:09.420Z,96537.38
2018-05-14T01:55:37.932Z,96538.48
2018-05-14T01:58:05.354Z,96528.11
2018-05-14T02:00:34.499Z,96528.69
2018-05-14T02:03:01.934Z,96534.39
2018-05-14T02:05:29.322Z,96537.28
2018-05-14T02:07:57.754Z,96543.94
2018-05-14T02:10:25.166Z,96539.34
2018-05-14T02:12:53.147Z,96537.05
2018-05-14T02:15:20.541Z,96530.00
2018-05-14T02:17:47.930Z,96527.86
2018-05-14T02:20:15.390Z,96523.52
2018-05-14T02:22:43.204Z,96513.23
2018-05-14T02:25:10.627Z,96514.07
2018-05-14T02:27:38.046Z,96517.73
2018-05-14T02:30:06.219Z,96511.20
2018-05-14T02:32:34.461Z,96514.25
2018-05-14T02:35:01.939Z,96512.94
2018-05-14T02:37:29.666Z,96509.09
2018-05-14T02:39:57.084Z,96513.75
2018-05-14T02:42:24.525Z,96515.28
2018-05-14T02:44:52.127Z,96522.59
2018-05-14T02:47:20.581Z,96526.31
2018-05-14T02:49:48.060Z,96526.94
2018-05-14T02:52:16.120Z,96532.02
2018-05-14T02:54:43.637Z,96530.63
2018-05-14T02:57:11.087Z,96538.19
2018-05-14T02:59:38.979Z,96539.14
2018-05-14T03:02:06.530Z,96526.61
2018-05-14T03:04:33.962Z,96524.03
2018-05-14T03:07:01.963Z,96516.78
2018-05-14T03:09:29.557Z,96516.42
2018-05-14T03:11:56.976Z,96512.09
2018-05-14T03:14:24.441Z,96508.58
2018-05-14T03:16:51.854Z,96500.22
2018-05-14T03:19:19.307Z,96498.11
2018-05-14T03:21:46.765Z,96490.58
2018-05-14T03:24:14.207Z,96501.46
2018-05-14T03:26:41.641Z,96503.00
2018-05-14T03:29:09.092Z,96499.97
2018-05-14T03:31:36.663Z,96506.47
2018-05-14T03:34:04.090Z,96509.98
2018-05-14T03:36:31.576Z,96510.05
2018-05-14T03:38:59.016Z,96512.83
2018-05-14T03:41:26.447Z,96525.87
2018-05-14T03:43:53.894Z,96530.92
2018-05-14T03:46:21.320Z,96536.15
2018-05-14T03:48:48.710Z,96537.52
2018-05-14T03:51:16.337Z,96527.47
2018-05-14T03:53:43.799Z,96518.63
2018-05-14T03:56:11.206Z,96512.14
2018-05-14T03:58:50.522Z,96507.78
2018-05-14T04:01:18.017Z,96495.95
2018-05-14T04:03:57.306Z,96503.09
2018-05-14T04:06:37.635Z,96520.80
2018-05-14T04:09:06.038Z,96530.50
2018-05-14T04:11:33.432Z,96545.31
2018-05-14T04:14:00.899Z,96549.30
2018-05-14T04:16:28.397Z,96533.63
2018-05-14T04:18:55.799Z,96529.72
2018-05-14T04:21:23.274Z,96521.03
2018-05-14T04:23:50.662Z,96526.17
2018-05-14T04:26:18.096Z,96524.28
2018-05-14T04:28:45.524Z,96529.03
2018-05-14T04:31:12.928Z,96527.68
2018-05-14T04:33:40.389Z,96527.27
2018-05-14T04:36:07.774Z,96525.39
2018-05-14T04:38:36.055Z,96527.84
2018-05-14T04:41:03.483Z,96525.92
2018-05-14T04:46:10.843Z,96516.48
2018-05-14T04:48:39.509Z,96504.70
2018-05-14T04:51:06.890Z,96508.37
2018-05-14T04:53:34.341Z,96514.56
2018-05-14T04:56:01.744Z,96520.47
2018-05-14T04:58:29.168Z,96524.28
2018-05-14T05:00:56.636Z,96524.87
2018-05-14T05:03:24.097Z,96523.50
2018-05-14T05:05:51.561Z,96520.23
2018-05-14T05:08:18.968Z,96527.80
2018-05-14T05:10:46.386Z,96530.09
2018-05-14T05:13:13.870Z,96521.64
2018-05-14T05:15:42.990Z,96510.69
2018-05-14T05:18:10.423Z,96508.36
2018-05-14T05:20:37.851Z,96512.45
2018-05-14T05:23:05.296Z,96513.88
2018-05-14T05:25:32.731Z,96510.47
2018-05-14T05:28:00.325Z,96504.88
2018-05-14T05:30:27.773Z,96491.70
2018-05-14T05:32:55.453Z,96501.00
2018-05-14T05:35:22.911Z,96510.92
2018-05-14T05:37:50.399Z,96518.67
2018-05-14T05:40:17.799Z,96521.55
2018-05-14T05:42:45.208Z,96517.89
2018-05-14T05:45:12.650Z,96533.41
2018-05-14T05:47:40.051Z,96525.48
2018-05-14T05:50:07.537Z,96531.30
2018-05-14T05:52:34.987Z,96531.75
2018-05-14T05:55:02.403Z,96522.75
2018-05-14T05:57:29.851Z,96531.77
2018-05-14T05:59:57.259Z,96539.41
2018-05-14T06:02:24.677Z,96530.09
2018-05-14T06:04:52.071Z,96524.91
2018-05-14T06:07:19.518Z,96524.87
2018-05-14T06:09:46.932Z,96533.52
2018-05-14T06:12:14.575Z,96527.29
2018-05-14T06:14:41.996Z,96526.98
2018-05-14T06:17:09.384Z,96528.27
2018-05-14T06:19:36.830Z,96543.45
2018-05-14T06:22:04.283Z,96551.73
2018-05-14T06:24:31.823Z,96544.21
2018-05-14T06:26:59.290Z,96545.09
2018-05-14T06:29:30.466Z,96544.91
2018-05-14T06:31:57.947Z,96538.67
2018-05-14T06:34:25.444Z,96532.53
2018-05-14T06:36:52.894Z,96538.23
2018-05-14T06:39:20.341Z,96533.85
2018-05-14T06:41:50.033Z,96530.77
2018-05-14T06:44:17.560Z,96532.87
2018-05-14T06:46:44.949Z,96534.55
2018-05-14T06:49:14.024Z,96526.91
2018-05-14T06:54:15.917Z,96531.64
2018-05-14T06:56:43.413Z,96536.28
2018-05-14T06:59:10.885Z,96534.52
2018-05-14T07:01:38.315Z,96536.89
2018-05-14T07:04:05.715Z,96528.11
2018-05-14T07:06:33.162Z,96524.80
2018-05-14T07:09:00.719Z,96521.58
2018-05-14T07:11:28.160Z,96511.98
2018-05-14T07:13:55.792Z,96509.83
2018-05-14T07:16:24.513Z,96513.40
2018-05-14T07:18:52.381Z,96522.88
2018-05-14T07:21:19.818Z,96519.09
2018-05-14T07:23:47.704Z,96519.16
2018-05-14T07:26:15.093Z,96509.02
2018-05-14T07:28:43.707Z,96502.70
2018-05-14T07:31:12.063Z,96501.36
2018-05-14T07:33:39.528Z,96517.92
2018-05-14T07:36:08.078Z,96515.96
2018-05-14T07:38:35.541Z,96507.77
2018-05-14T07:41:03.084Z,96502.61
2018-05-14T07:43:30.480Z,96489.02
2018-05-14T07:45:57.969Z,96499.69
2018-05-14T07:48:27.985Z,96489.67
2018-05-14T07:50:55.460Z,96489.23
2018-05-14T07:53:23.601Z,96487.36
2018-05-14T07:55:51.144Z,96485.11
2018-05-14T07:58:18.614Z,96485.44
2018-05-14T08:00:46.044Z,96489.92
2018-05-14T08:03:14.258Z,96486.81
2018-05-14T08:05:42.158Z,96478.56
2018-05-14T08:08:09.539Z,96501.77
2018-05-14T08:10:36.972Z,96512.91
2018-05-14T08:13:04.461Z,96518.06
2018-05-14T08:15:31.907Z,96517.17
2018-05-14T08:17:59.342Z,96527.58
2018-05-14T08:20:26.830Z,96535.16
2018-05-14T08:22:54.321Z,96535.76
2018-05-14T08:25:21.797Z,96533.88
2018-05-14T08:27:49.224Z,96540.14
2018-05-14T08:30:16.705Z,96532.48
2018-05-14T08:32:44.184Z,96531.89
2018-05-14T08:35:11.958Z,96522.05
2018-05-14T08:37:39.368Z,96527.33
2018-05-14T08:40:06.836Z,96514.47
2018-05-14T08:42:34.300Z,96514.73
2018-05-14T08:45:03.601Z,96515.09
2018-05-14T08:47:31.076Z,96519.05
2018-05-14T08:49:58.529Z,96523.47
2018-05-14T08:52:25.996Z,96521.75
2018-05-14T08:54:53.401Z,96515.72
2018-05-14T08:57:20.833Z,96519.87
2018-05-14T08:59:48.289Z,96515.70
2018-05-14T09:02:15.752Z,96515.47
2018-05-14T09:04:43.189Z,96514.66
2018-05-14T09:07:10.632Z,96505.88
2018-05-14T09:09:38.030Z,96512.03
2018-05-14T09:12:06.160Z,96511.50
2018-05-14T09:14:33.647Z,96508.80
2018-05-14T09:17:01.115Z,96518.17
2018-05-14T09:19:28.647Z,96514.24
2018-05-14T09:21:56.023Z,96518.96
2018-05-14T09:24:23.457Z,96517.20
2018-05-14T09:26:51.609Z,96510.56
2018-05-14T09:29:19.047Z,96512.23
2018-05-14T09:31:46.481Z,96509.13
2018-05-14T09:34:13.975Z,96510.98
2018-05-14T09:36:41.725Z,96512.84
2018-05-14T09:39:09.299Z,96517.77
2018-05-14T09:41:36.745Z,96514.35
2018-05-14T09:44:04.187Z,96520.59
2018-05-14T09:46:31.629Z,96528.73
2018-05-14T09:48:59.113Z,96522.16
2018-05-14T09:51:26.553Z,96526.73
2018-05-14T09:53:55.690Z,96519.27
2018-05-14T09:56:24.886Z,96515.94
2018-05-14T09:58:52.316Z,96524.80
2018-05-14T10:01:19.922Z,96535.11
2018-05-14T10:03:47.368Z,96535.62
2018-05-14T10:06:16.126Z,96530.03
2018-05-14T10:08:43.555Z,96528.83
2018-05-14T10:11:11.190Z,96531.50
2018-05-14T10:13:38.718Z,96535.63
2018-05-14T10:16:06.566Z,96536.44
2018-05-14T10:18:34.000Z,96524.95
2018-05-14T10:21:01.395Z,96523.42
2018-05-14T10:23:28.845Z,96520.48
2018-05-14T10:25:57.057Z,96518.02
2018-05-14T10:28:24.760Z,96511.67
2018-05-14T10:30:52.225Z,96509.48
2018-05-14T10:33:20.357Z,96509.55
2018-05-14T10:35:47.806Z,96510.17
2018-05-14T10:38:15.676Z,96509.02
2018-05-14T10:40:43.138Z,96513.31
2018-05-14T10:43:10.641Z,96521.48
2018-05-14T10:45:38.083Z,96518.14
2018-05-14T10:48:05.534Z,96521.75
2018-05-14T10:50:41.712Z,96525.97
2018-05-14T10:53:09.235Z,96521.14
2018-05-14T10:55:36.659Z,96520.68
2018-05-14T10:58:04.164Z,96513.66
2018-05-14T11:00:31.652Z,96519.22
2018-05-14T11:03:00.031Z,96517.49
2018-05-14T11:05:27.487Z,96512.44
2018-05-14T11:07:54.915Z,96518.50
2018-05-14T11:10:23.327Z,96517.41
2018-05-14T11:12:50.792Z,96518.50
2018-05-14T11:15:18.216Z,96520.83
2018-05-14T11:17:45.637Z,96523.28
2018-05-14T11:20:13.091Z,96517.09
2018-05-14T11:22:40.664Z,96513.67
2018-05-14T11:25:08.074Z,96514.33
2018-05-14T11:27:35.534Z,96518.78
2018-05-14T11:30:02.976Z,96514.61
2018-05-14T11:32:30.445Z,96517.91
2018-05-14T11:34:59.235Z,96522.58
2018-05-14T11:37:26.700Z,96521.99
2018-05-14T11:39:54.197Z,96514.47
2018-05-14T11:42:22.322Z,96515.95
2018-05-14T11:44:49.731Z,96521.27
2018-05-14T11:47:17.379Z,96519.95
2018-05-14T11:49:45.189Z,96516.95
2018-05-14T11:52:12.758Z,96528.34
2018-05-14T11:54:40.217Z,96523.66
2018-05-14T11:57:07.648Z,96526.81
2018-05-14T12:02:07.114Z,96532.88
2018-05-14T12:04:36.198Z,96532.08
2018-05-14T12:07:03.753Z,96532.63
2018-05-14T12:09:31.261Z,96529.84
2018-05-14T12:11:58.681Z,96538.20
2018-05-14T12:14:26.218Z,96534.72
2018-05-14T12:16:53.840Z,96541.74
2018-05-14T12:19:24.356Z,96540.30
2018-05-14T12:21:51.793Z,96543.18
2018-05-14T12:24:19.257Z,96542.55
2018-05-14T12:26:48.496Z,96542.73
2018-05-14T12:29:15.995Z,96536.88
2018-05-14T12:31:43.547Z,96549.36
2018-05-14T12:34:13.202Z,96543.42
2018-05-14T12:36:40.671Z,96542.78
2018-05-14T12:39:08.216Z,96552.23
2018-05-14T12:41:35.660Z,96547.35
2018-05-14T12:44:04.102Z,96551.30
2018-05-14T12:46:31.525Z,96554.42
2018-05-14T12:49:01.534Z,96549.13
2018-05-14T12:51:28.997Z,96544.06
2018-05-14T12:53:56.464Z,96552.66
2018-05-14T12:56:23.914Z,96546.59
2018-05-14T12:58:51.379Z,96547.00
2018-05-14T13:01:18.800Z,96552.55
2018-05-14T13:03:46.270Z,96560.44
2018-05-14T13:06:13.705Z,96560.06
2018-05-14T13:08:41.201Z,96564.27
2018-05-14T13:11:08.795Z,96564.84
2018-05-14T13:13:37.347Z,96565.14
2018-05-14T13:16:04.830Z,96574.02
2018-05-14T13:18:32.230Z,96573.80
2018-05-14T13:20:59.702Z,96569.52
2018-05-14T13:23:27.107Z,96569.02
2018-05-14T13:25:56.305Z,96573.33
2018-05-14T13:28:24.529Z,96579.40
2018-05-14T13:30:51.939Z,96574.44
2018-05-14T13:33:19.372Z,96576.14
2018-05-14T13:35:46.809Z,96572.23
2018-05-14T13:38:15.166Z,96576.56
2018-05-14T13:40:43.555Z,96567.02
2018-05-14T13:43:11.652Z,96565.20
2018-05-14T13:45:39.098Z,96564.58
2018-05-14T13:48:06.551Z,96566.67
2018-05-14T13:50:34.024Z,96566.31
2018-05-14T13:53:01.468Z,96571.94
2018-05-14T13:55:30.245Z,96568.73
2018-05-14T13:57:57.969Z,96575.46
2018-05-14T14:00:25.504Z,96579.94
2018-05-14T14:02:52.969Z,96578.84
2018-05-14T14:05:21.629Z,96579.05
2018-05-14T14:07:49.187Z,96580.70
2018-05-14T14:10:16.686Z,96578.98
2018-05-14T14:12:44.172Z,96577.97
2018-05-14T14:15:11.726Z,96587.42
2018-05-14T14:17:39.149Z,96581.78
2018-05-14T14:20:06.626Z,96583.27
2018-05-14T14:22:34.090Z,96579.73
2018-05-14T14:25:01.574Z,96586.22
2018-05-14T14:27:28.976Z,96593.45
2018-05-14T14:29:56.992Z,96580.16
2018-05-14T14:32:25.315Z,96587.88
2018-05-14T14:34:52.767Z,96585.48
2018-05-14T14:37:21.843Z,96587.58
2018-05-14T14:39:49.280Z,96592.20
2018-05-14T14:42:16.671Z,96598.43
2018-05-14T14:44:44.109Z,96588.77
2018-05-14T14:47:11.564Z,96593.02
2018-05-14T14:49:39.038Z,96590.08
2018-05-14T14:52:07.001Z,96590.78
2018-05-14T14:54:35.839Z,96599.41
2018-05-14T14:57:03.256Z,96605.08
2018-05-14T14:59:30.710Z,96600.66
2018-05-14T15:01:58.136Z,96597.84
2018-05-14T15:04:25.568Z,96604.24
2018-05-14T15:06:53.012Z,96613.48
2018-05-14T15:09:20.445Z,96606.91
2018-05-14T15:11:47.903Z,96610.66
2018-05-14T15:14:15.358Z,96608.61
2018-05-14T15:16:42.847Z,96613.27
2018-05-14T15:19:10.548Z,96617.98
2018-05-14T15:21:39.503Z,96615.45
2018-05-14T15:24:07.289Z,96621.63
2018-05-14T15:26:34.707Z,96623.33
2018-05-14T15:29:02.303Z,96621.12
2018-05-14T15:31:29.740Z,96618.75
2018-05-14T15:33:57.263Z,96621.55
2018-05-14T15:36:24.659Z,96620.12
2018-05-14T15:38:52.798Z,96617.53
2018-05-14T15:41:20.246Z,96615.59
2018-05-14T15:43:47.898Z,96618.98
2018-05-14T15:46:15.294Z,96615.45
2018-05-14T15:48:42.775Z,96613.04
2018-05-14T15:51:10.271Z,96617.17
2018-05-14T15:53:37.662Z,96625.16
2018-05-14T15:56:07.155Z,96626.19
2018-05-14T15:58:34.632Z,96622.91
2018-05-14T16:01:02.028Z,96631.05
2018-05-14T16:03:29.433Z,96625.16
2018-05-14T16:05:56.914Z,96628.17
2018-05-14T16:08:33.082Z,96623.96
2018-05-14T16:11:00.517Z,96621.45
2018-05-14T16:13:27.987Z,96630.74
2018-05-14T16:15:55.456Z,96629.30
2018-05-14T16:18:25.259Z,96624.78
2018-05-14T16:20:53.484Z,96616.05
2018-05-14T16:23:20.919Z,96616.77
2018-05-14T16:25:48.854Z,96620.92
2018-05-14T16:28:16.295Z,96620.19
2018-05-14T16:30:43.716Z,96624.42
2018-05-14T16:33:11.179Z,96631.71
2018-05-14T16:35:38.630Z,96621.66
2018-05-14T16:38:06.084Z,96623.89
2018-05-14T16:40:33.569Z,96619.75
2018-05-14T16:43:00.981Z,96626.81
2018-05-14T16:45:28.530Z,96642.38
2018-05-14T16:47:55.940Z,96645.12
2018-05-14T16:50:23.669Z,96647.82
2018-05-14T16:52:51.079Z,96645.78
2018-05-14T16:55:18.499Z,96654.19
2018-05-14T16:57:46.083Z,96653.91
2018-05-14T17:00:13.530Z,96656.08
2018-05-14T17:02:40.945Z,96653.11
2018-05-14T17:05:08.417Z,96651.23
2018-05-14T17:07:35.872Z,96641.91
2018-05-14T17:10:03.348Z,96639.45
2018-05-14T17:12:31.433Z,96644.02
2018-05-14T17:14:58.845Z,96651.11
2018-05-14T17:17:26.328Z,96658.16
2018-05-14T17:19:53.697Z,96658.30
2018-05-14T17:22:21.094Z,96656.50
2018-05-14T17:24:48.603Z,96655.25
2018-05-14T17:27:16.069Z,96654.86
2018-05-14T17:29:44.959Z,96664.32
2018-05-14T17:32:12.440Z,96662.30
2018-05-14T17:34:39.910Z,96663.59
2018-05-14T17:37:07.427Z,96660.06
2018-05-14T17:39:35.009Z,96659.39
2018-05-14T17:42:02.442Z,96663.48
2018-05-14T17:44:29.940Z,96667.45
2018-05-14T17:46:57.397Z,96671.09
2018-05-14T17:49:24.905Z,96671.34
2018-05-14T17:51:52.328Z,96672.47
2018-05-14T17:54:26.623Z,96664.91
2018-05-14T17:56:54.040Z,96669.49
2018-05-14T17:59:21.647Z,96669.54
2018-05-14T18:01:49.032Z,96674.40
2018-05-14T18:04:16.484Z,96671.88
2018-05-14T18:06:43.908Z,96670.52
2018-05-14T18:09:11.315Z,96672.70
2018-05-14T18:11:38.760Z,96674.88
2018-05-14T18:14:06.187Z,96682.99
2018-05-14T18:16:33.711Z,96689.05
2018-05-14T18:19:01.183Z,96687.77
2018-05-14T18:21:34.239Z,96695.54
2018-05-14T18:24:01.704Z,96696.41
2018-05-14T18:26:34.729Z,96694.77
2018-05-14T18:29:06.008Z,96697.65
2018-05-14T18:31:33.406Z,96703.50
2018-05-14T18:34:06.351Z,96712.14
2018-05-14T18:36:33.861Z,96710.67
2018-05-14T18:39:01.592Z,96708.92
2018-05-14T18:41:29.710Z,96712.13
2018-05-14T18:43:57.177Z,96718.09
2018-05-14T18:46:25.094Z,96714.13
2018-05-14T18:48:52.531Z,96715.92
2018-05-14T18:51:19.966Z,96719.66
2018-05-14T18:53:47.403Z,96722.41
2018-05-14T18:56:15.858Z,96729.17
2018-05-14T18:58:43.247Z,96730.87
2018-05-14T19:01:10.744Z,96739.91
2018-05-14T19:03:38.519Z,96739.17
2018-05-14T19:06:05.948Z,96741.99
2018-05-14T19:08:33.387Z,96737.50
2018-05-14T19:11:06.561Z,96740.88
2018-05-14T19:13:33.952Z,96733.86
2018-05-14T19:16:07.031Z,96742.47
2018-05-14T19:18:34.514Z,96743.83
2018-05-14T19:21:02.494Z,96743.64
2018-05-14T19:23:35.652Z,96737.33
2018-05-14T19:26:03.169Z,96746.54
2018-05-14T19:28:36.594Z,96752.78
2018-05-14T19:31:04.119Z,96762.02
2018-05-14T19:33:37.112Z,96765.13
2018-05-14T19:36:04.550Z,96758.14
2018-05-14T19:38:32.030Z,96759.11
2018-05-14T19:40:59.428Z,96759.89
2018-05-14T19:43:27.224Z,96753.75
2018-05-14T19:45:54.718Z,96750.59
2018-05-14T19:48:22.139Z,96754.95
2018-05-14T19:50:49.639Z,96752.31
2018-05-14T19:53:17.050Z,96748.78
2018-05-14T19:55:45.488Z,96752.63
2018-05-14T19:58:12.908Z,96750.11
2018-05-14T20:00:40.342Z,96753.53
2018-05-14T20:03:08.009Z,96751.57
2018-05-14T20:05:35.473Z,96756.22
2018-05-14T20:08:03.801Z,96756.77
2018-05-14T20:10:31.264Z,96763.23
2018-05-14T20:12:59.542Z,96764.47
2018-05-14T20:15:27.064Z,96761.59
2018-05-14T20:17:54.604Z,96740.80
2018-05-14T20:20:22.008Z,96743.40
2018-05-14T20:22:50.121Z,96762.88
2018-05-14T20:25:17.540Z,96777.88
2018-05-14T20:27:44.994Z,96784.80
2018-05-14T20:30:12.491Z,96800.34
2018-05-14T20:32:39.891Z,96799.41
2018-05-14T20:35:07.322Z,96796.17
2018-05-14T20:37:35.731Z,96797.79
2018-05-14T20:40:03.207Z,96786.67
2018-05-14T20:42:30.635Z,96782.44
2018-05-14T20:44:58.133Z,96778.12
2018-05-14T20:47:26.519Z,96778.30
2018-05-14T20:49:53.965Z,96776.73
2018-05-14T20:52:21.422Z,96780.77
2018-05-14T20:54:48.814Z,96781.84
2018-05-14T20:57:16.290Z,96784.11
2018-05-14T20:59:49.287Z,96784.30
2018-05-14T21:02:16.659Z,96784.03
2018-05-14T21:04:46.212Z,96794.07
2018-05-14T21:07:13.703Z,96801.44
2018-05-14T21:09:41.137Z,96806.39
2018-05-14T21:12:09.431Z,96816.39
2018-05-14T21:14:36.943Z,96831.20
2018-05-14T21:17:04.356Z,96844.84
2018-05-14T21:19:31.792Z,96849.19
2018-05-14T21:21:59.204Z,96859.25
2018-05-14T21:24:26.649Z,96854.41
2018-05-14T21:26:54.100Z,96852.44
2018-05-14T21:29:21.581Z,96847.58
2018-05-14T21:31:49.016Z,96848.28
2018-05-14T21:34:17.512Z,96847.79
2018-05-14T21:36:45.625Z,96851.01
2018-05-14T21:39:13.044Z,96836.75
2018-05-14T21:41:40.492Z,96835.20
2018-05-14T21:44:07.954Z,96837.03
2018-05-14T21:46:35.412Z,96832.59
2018-05-14T21:49:02.908Z,96830.06
2018-05-14T21:51:30.313Z,96822.98
2018-05-14T21:53:57.838Z,96819.80
2018-05-14T21:56:25.243Z,96822.87
2018-05-14T21:58:52.701Z,96824.48
2018-05-14T22:01:20.130Z,96822.02
2018-05-14T22:03:47.581Z,96820.30
2018-05-14T22:06:14.971Z,96801.89
2018-05-14T22:08:42.462Z,96801.92
2018-05-14T22:11:09.883Z,96800.95
2018-05-14T22:13:37.275Z,96798.09
2018-05-14T22:16:04.747Z,96794.73
2018-05-14T22:18:32.176Z,96793.21
2018-05-14T22:20:59.585Z,96780.11
2018-05-14T22:23:27.042Z,96790.97
2018-05-14T22:25:54.485Z,96791.17
2018-05-14T22:28:21.912Z,96797.02
2018-05-14T22:30:49.411Z,96798.88
2018-05-14T22:33:16.795Z,96792.42
2018-05-14T22:35:45.307Z,96798.67
2018-05-14T22:38:14.250Z,96795.77
2018-05-14T22:40:41.717Z,96796.53
2018-05-14T22:43:09.123Z,96796.12
2018-05-14T22:45:47.013Z,96800.47
2018-05-14T22:48:14.458Z,96798.16
2018-05-14T22:50:41.864Z,96801.55
2018-05-14T22:53:09.266Z,96802.93
2018-05-14T22:55:36.779Z,96802.55
2018-05-14T22:58:04.231Z,96798.64
2018-05-14T23:00:31.722Z,96796.84
2018-05-14T23:02:59.185Z,96800.57
2018-05-14T23:05:26.601Z,96803.88
2018-05-14T23:07:54.031Z,96805.05
2018-05-14T23:10:22.112Z,96803.23
2018-05-14T23:12:49.573Z,96801.94
2018-05-14T23:15:17.763Z,96805.41
2018-05-14T23:17:45.188Z,96803.18
2018-05-14T23:20:12.599Z,96805.06
2018-05-14T23:22:40.844Z,96787.00
2018-05-14T23:25:08.316Z,96778.57
2018-05-14T23:27:35.770Z,96773.61
2018-05-14T23:30:03.224Z,96782.13
2018-05-14T23:32:30.720Z,96788.52
2018-05-14T23:34:58.152Z,96789.73
2018-05-14T23:37:25.621Z,96786.33
2018-05-14T23:39:54.807Z,96793.66
2018-05-14T23:42:22.277Z,96787.99
2018-05-14T23:44:49.719Z,96786.02
2018-05-14T23:47:17.145Z,96782.45
2018-05-14T23:49:44.543Z,96779.59
2018-05-14T23:52:11.995Z,96773.41
2018-05-14T23:54:39.458Z,96769.59
2018-05-14T23:57:07.306Z,96775.09
2018-05-14T23:59:34.691Z,96784.56
